Time;durP1;ratioP1;P1;durP2;ratioP2;P2;SDS_P1;SDS_P2;PMS_P1;PMS_P2;Temp;Humidity;BMP_temperature;BMP_pressure;BME280_temperature;BME280_humidity;BME280_pressure;Samples;Min_cycle;Max_cycle;Signal;HPM_P1;HPM_P2
2022/01/30 00:00:00;;;;;;;;;;;-0.40;79.20;;;;;;5023968;28;94371;-44
2022/01/30 00:02:26;;;;;;;;;;;-0.40;79.20;;;;;;5021434;28;93842;-43
2022/01/30 00:04:51;;;;;;;;;;;-0.40;79.00;;;;;;5020754;28;94572;-44
2022/01/30 00:07:17;;;;;;;;;;;-0.40;79.10;;;;;;5021782;28;92114;-44
2022/01/30 00:09:42;;;;;;;;;;;-0.40;79.10;;;;;;5020349;28;94293;-44
2022/01/30 00:12:08;;;;;;;;;;;-0.40;78.80;;;;;;5021247;28;93518;-44
2022/01/30 00:14:36;;;;;;;;;;;-0.40;79.10;;;;;;5021099;28;92158;-44
2022/01/30 00:17:09;;;;;;;;;;;-0.40;79.20;;;;;;5021316;28;93930;-44
2022/01/30 00:27:15;;;;;;;;;;;-0.50;78.90;;;;;;5020768;28;91983;-44
2022/01/30 00:29:41;;;;;;;;;;;-0.50;79.10;;;;;;5021246;28;92106;-44
2022/01/30 00:32:07;;;;;;;;;;;-0.50;79.40;;;;;;5020330;28;94123;-44
2022/01/30 00:34:32;;;;;;;;;;;-0.50;79.00;;;;;;5021102;28;92215;-44
2022/01/30 00:37:00;;;;;;;;;;;-0.50;78.80;;;;;;5021616;28;92391;-44
2022/01/30 00:39:25;;;;;;;;;;;-0.50;79.10;;;;;;5020401;28;94509;-44
2022/01/30 00:41:51;;;;;;;;;;;-0.50;78.90;;;;;;5020054;28;92234;-44
2022/01/30 00:44:16;;;;;;;;;;;-0.60;78.60;;;;;;5022958;28;93841;-44
2022/01/30 00:46:44;;;;;;;;;;;-0.60;78.90;;;;;;5020604;28;92110;-44
2022/01/30 00:49:10;;;;;;;;;;;-0.50;78.70;;;;;;5020579;28;93882;-44
2022/01/30 00:51:37;;;;;;;;;;;-0.50;78.80;;;;;;5020113;28;94625;-44
2022/01/30 00:54:03;;;;;;;;;;;-0.60;78.70;;;;;;5020673;28;92134;-43
2022/01/30 00:56:29;;;;;;;;;;;-0.60;78.80;;;;;;5020393;28;93915;-45
2022/01/30 00:58:54;;;;;;;;;;;-0.60;78.50;;;;;;5020196;28;95065;-44
2022/01/30 01:01:20;;;;;;;;;;;-0.60;78.70;;;;;;5020812;28;91440;-44
2022/01/30 01:03:45;;;;;;;;;;;-0.60;78.50;;;;;;5020451;28;93201;-44
2022/01/30 01:06:11;;;;;;;;;;;-0.60;78.80;;;;;;5023047;28;93274;-44
2022/01/30 01:08:49;;;;;;;;;;;-0.60;78.60;;;;;;5019810;28;94288;-45
2022/01/30 01:24:11;;;;;;;;;;;-0.70;78.40;;;;;;5020360;28;92402;-44
2022/01/30 01:26:37;;;;;;;;;;;-0.70;78.40;;;;;;5023012;28;93639;-44
2022/01/30 01:29:04;;;;;;;;;;;-0.70;78.40;;;;;;5020114;28;92894;-44
2022/01/30 01:31:29;;;;;;;;;;;-0.70;78.40;;;;;;5019762;28;93412;-44
2022/01/30 01:36:32;;;;;;;;;;;-0.70;78.50;;;;;;5017867;28;93556;-44
2022/01/30 01:38:58;;;;;;;;;;;-0.70;78.40;;;;;;5019497;28;94137;-44
2022/01/30 01:41:25;;;;;;;;;;;-0.70;78.30;;;;;;5019362;28;92204;-44
2022/01/30 01:43:52;;;;;;;;;;;-0.80;78.40;;;;;;5020452;28;91895;-44
2022/01/30 01:46:24;;;;;;;;;;;-0.80;78.30;;;;;;5019393;28;94430;-44
2022/01/30 01:48:50;;;;;;;;;;;-0.80;78.40;;;;;;5023096;28;92075;-45
2022/01/30 01:51:19;;;;;;;;;;;-0.80;78.10;;;;;;5019911;28;93490;-44
2022/01/30 01:53:47;;;;;;;;;;;-0.80;78.20;;;;;;5020010;28;92182;-44
2022/01/30 01:56:14;;;;;;;;;;;-0.80;78.20;;;;;;5019875;28;93924;-44
2022/01/30 01:58:40;;;;;;;;;;;-0.80;78.20;;;;;;5018426;28;95525;-45
2022/01/30 02:01:05;;;;;;;;;;;-0.90;78.10;;;;;;5019667;28;92015;-44
2022/01/30 02:03:34;;;;;;;;;;;-0.90;78.10;;;;;;5019545;28;93844;-44
2022/01/30 02:06:02;;;;;;;;;;;-0.80;77.90;;;;;;5019343;28;94576;-44
2022/01/30 02:11:02;;;;;;;;;;;-0.90;78.00;;;;;;5022372;28;92464;-45
2022/01/30 02:25:13;;;;;;;;;;;-1.00;77.80;;;;;;5018943;28;93183;-44
2022/01/30 02:27:05;;;;;;;;;;;-1.00;77.80;;;;;;5015298;28;93918;-44
2022/01/30 02:29:31;;;;;;;;;;;-1.00;77.90;;;;;;5019518;28;92253;-44
2022/01/30 02:31:58;;;;;;;;;;;-1.00;77.70;;;;;;5019466;28;93735;-44
2022/01/30 02:34:27;;;;;;;;;;;-1.00;77.70;;;;;;5024265;28;94352;-44
2022/01/30 02:36:53;;;;;;;;;;;-1.00;77.80;;;;;;5022515;28;94039;-44
2022/01/30 02:39:19;;;;;;;;;;;-1.00;77.90;;;;;;5022366;28;94539;-44
2022/01/30 02:41:45;;;;;;;;;;;-1.00;77.60;;;;;;5022525;28;91468;-44
2022/01/30 02:44:17;;;;;;;;;;;-1.00;77.60;;;;;;5022872;28;92050;-45
2022/01/30 02:46:46;;;;;;;;;;;-1.00;77.50;;;;;;5022158;28;94643;-44
2022/01/30 02:51:48;;;;;;;;;;;-1.10;77.70;;;;;;5022546;28;93346;-45
2022/01/30 02:54:14;;;;;;;;;;;-1.10;77.60;;;;;;5022073;28;94290;-44
2022/01/30 02:56:41;;;;;;;;;;;-1.10;77.60;;;;;;5025874;28;92724;-44
2022/01/30 02:59:06;;;;;;;;;;;-1.10;77.70;;;;;;5021966;28;94734;-44
2022/01/30 03:01:32;;;;;;;;;;;-1.10;77.50;;;;;;5022422;28;92182;-44
2022/01/30 03:03:57;;;;;;;;;;;-1.10;77.60;;;;;;5022037;28;94025;-44
2022/01/30 03:06:23;;;;;;;;;;;-1.10;77.50;;;;;;5022232;28;93993;-44
2022/01/30 03:08:48;;;;;;;;;;;-1.20;77.50;;;;;;5022527;28;92187;-44
2022/01/30 03:11:14;;;;;;;;;;;-1.20;77.50;;;;;;5022173;28;93945;-45
2022/01/30 03:13:39;;;;;;;;;;;-1.20;77.40;;;;;;5020803;28;95517;-44
2022/01/30 03:16:05;;;;;;;;;;;-1.20;77.30;;;;;;5022180;28;92171;-46
2022/01/30 03:18:31;;;;;;;;;;;-1.20;77.30;;;;;;5024671;28;93863;-44
2022/01/30 03:20:57;;;;;;;;;;;-1.20;77.40;;;;;;5022119;28;91940;-44
2022/01/30 03:23:22;;;;;;;;;;;-1.20;77.40;;;;;;5022050;28;94067;-45
2022/01/30 03:25:54;;;;;;;;;;;-1.20;77.50;;;;;;5021488;28;94870;-44
2022/01/30 03:28:20;;;;;;;;;;;-1.20;77.20;;;;;;5022072;28;92080;-44
2022/01/30 03:30:47;;;;;;;;;;;-1.30;77.30;;;;;;5022486;28;92890;-44
2022/01/30 03:33:13;;;;;;;;;;;-1.30;77.20;;;;;;5021068;28;94394;-44
2022/01/30 03:35:38;;;;;;;;;;;-1.30;77.20;;;;;;5021984;28;92215;-44
2022/01/30 03:38:04;;;;;;;;;;;-1.30;77.30;;;;;;5023738;28;93790;-46
2022/01/30 03:40:30;;;;;;;;;;;-1.30;76.90;;;;;;5021831;28;92096;-44
2022/01/30 03:42:55;;;;;;;;;;;-1.30;77.00;;;;;;5021287;28;93791;-44
2022/01/30 03:45:21;;;;;;;;;;;-1.30;77.10;;;;;;5021134;28;93117;-44
2022/01/30 03:47:47;;;;;;;;;;;-1.30;77.10;;;;;;5020459;28;92160;-44
2022/01/30 03:50:13;;;;;;;;;;;-1.30;77.10;;;;;;5021687;28;93766;-44
2022/01/30 03:52:39;;;;;;;;;;;-1.30;77.10;;;;;;5021068;28;94715;-44
2022/01/30 03:55:04;;;;;;;;;;;-1.30;77.20;;;;;;5022055;28;91423;-44
2022/01/30 03:57:30;;;;;;;;;;;-1.40;77.10;;;;;;5021523;28;93196;-44
2022/01/30 03:59:55;;;;;;;;;;;-1.40;77.00;;;;;;5024054;28;94719;-44
2022/01/30 04:02:21;;;;;;;;;;;-1.30;77.20;;;;;;5020542;28;93905;-44
2022/01/30 04:04:46;;;;;;;;;;;-1.40;77.20;;;;;;5020740;28;94451;-45
2022/01/30 04:07:12;;;;;;;;;;;-1.40;77.20;;;;;;5021639;28;91864;-44
2022/01/30 04:09:38;;;;;;;;;;;-1.40;77.20;;;;;;5021363;28;93892;-44
2022/01/30 04:12:03;;;;;;;;;;;-1.40;77.20;;;;;;5020716;28;94668;-44
2022/01/30 04:14:29;;;;;;;;;;;-1.40;77.00;;;;;;5021093;28;92129;-44
2022/01/30 04:16:55;;;;;;;;;;;-1.40;77.10;;;;;;5021160;28;94643;-44
2022/01/30 04:19:20;;;;;;;;;;;-1.50;77.20;;;;;;5021028;28;93716;-44
2022/01/30 04:21:46;;;;;;;;;;;-1.50;77.10;;;;;;5024202;28;92247;-44
2022/01/30 04:24:11;;;;;;;;;;;-1.50;76.90;;;;;;5020480;28;94679;-44
2022/01/30 04:26:37;;;;;;;;;;;-1.50;76.90;;;;;;5020318;28;93070;-44
2022/01/30 04:29:03;;;;;;;;;;;-1.50;77.00;;;;;;5021016;28;94847;-44
2022/01/30 04:31:28;;;;;;;;;;;-1.50;77.00;;;;;;5020432;28;94766;-44
2022/01/30 04:33:54;;;;;;;;;;;-1.50;76.80;;;;;;5020663;28;92217;-44
2022/01/30 04:36:26;;;;;;;;;;;-1.50;77.00;;;;;;5020997;28;93741;-44
2022/01/30 05:05:37;;;;;;;;;;;-1.70;76.70;;;;;;5020369;28;92672;-44
2022/01/30 05:07:57;;;;;;;;;;;-1.70;76.60;;;;;;5022822;28;93853;-44
2022/01/30 05:10:22;;;;;;;;;;;-1.70;76.70;;;;;;5020964;28;94010;-44
2022/01/30 05:12:52;;;;;;;;;;;-1.70;76.50;;;;;;5019622;28;94458;-46
2022/01/30 05:15:19;;;;;;;;;;;-1.70;76.50;;;;;;5020271;28;92127;-44
2022/01/30 05:17:44;;;;;;;;;;;-1.70;76.50;;;;;;5019471;28;93935;-44
2022/01/30 05:20:10;;;;;;;;;;;-1.70;76.60;;;;;;5019948;28;94302;-44
2022/01/30 05:22:36;;;;;;;;;;;-1.70;76.60;;;;;;5020095;28;92157;-44
2022/01/30 05:25:02;;;;;;;;;;;-1.80;76.60;;;;;;5020202;28;94134;-44
2022/01/30 05:27:27;;;;;;;;;;;-1.80;76.80;;;;;;5019512;28;94484;-44
2022/01/30 05:29:53;;;;;;;;;;;-1.70;76.70;;;;;;5023021;28;91873;-44
2022/01/30 05:32:18;;;;;;;;;;;-1.80;76.40;;;;;;5019415;28;94363;-44
2022/01/30 05:34:44;;;;;;;;;;;-1.80;76.40;;;;;;5020492;28;91364;-43
2022/01/30 05:37:11;;;;;;;;;;;-1.80;76.50;;;;;;5020381;28;92035;-43
2022/01/30 05:39:36;;;;;;;;;;;-1.80;76.50;;;;;;5019424;28;94566;-45
2022/01/30 05:42:02;;;;;;;;;;;-1.80;76.40;;;;;;5018635;28;93075;-44
2022/01/30 05:44:43;;;;;;;;;;;-1.80;76.40;;;;;;5019861;28;94704;-44
2022/01/30 05:47:12;;;;;;;;;;;-1.80;76.10;;;;;;5019183;28;94364;-44
2022/01/30 05:49:38;;;;;;;;;;;-1.80;76.30;;;;;;5023274;28;92046;-44
2022/01/30 05:52:04;;;;;;;;;;;-1.80;76.20;;;;;;5019434;28;94527;-44
2022/01/30 05:54:29;;;;;;;;;;;-1.80;76.30;;;;;;5019816;28;92017;-44
2022/01/30 05:56:55;;;;;;;;;;;-1.80;76.10;;;;;;5019726;28;93979;-44
2022/01/30 05:59:20;;;;;;;;;;;-1.80;76.10;;;;;;5019769;28;93973;-44
2022/01/30 06:01:46;;;;;;;;;;;-1.80;76.20;;;;;;5019646;28;92180;-44
2022/01/30 06:04:11;;;;;;;;;;;-1.80;76.30;;;;;;5019692;28;94304;-44
2022/01/30 06:06:37;;;;;;;;;;;-1.90;76.30;;;;;;5018501;28;94701;-44
2022/01/30 06:09:19;;;;;;;;;;;-1.80;76.30;;;;;;5021559;28;92292;-44
2022/01/30 06:11:44;;;;;;;;;;;-1.90;76.10;;;;;;5025879;28;93900;-44
2022/01/30 06:14:10;;;;;;;;;;;-1.90;76.30;;;;;;5022865;28;92146;-44
2022/01/30 06:16:36;;;;;;;;;;;-1.90;76.40;;;;;;5023581;28;91886;-44
2022/01/30 06:19:02;;;;;;;;;;;-1.90;76.20;;;;;;5022570;28;94589;-44
2022/01/30 06:21:28;;;;;;;;;;;-1.90;76.30;;;;;;5023167;28;92082;-45
2022/01/30 06:23:53;;;;;;;;;;;-2.00;76.20;;;;;;5023342;28;93805;-44
2022/01/30 06:26:19;;;;;;;;;;;-1.90;76.40;;;;;;5022492;28;94350;-44
2022/01/30 06:28:44;;;;;;;;;;;-2.00;76.30;;;;;;5022869;28;92249;-44
2022/01/30 06:31:10;;;;;;;;;;;-2.00;76.50;;;;;;5022444;28;93937;-44
2022/01/30 06:33:35;;;;;;;;;;;-2.00;77.00;;;;;;5025433;28;94617;-44
2022/01/30 06:36:01;;;;;;;;;;;-2.00;76.30;;;;;;5022611;28;94157;-44
2022/01/30 06:38:26;;;;;;;;;;;-2.00;76.40;;;;;;5022173;28;94358;-44
2022/01/30 06:40:52;;;;;;;;;;;-2.00;76.50;;;;;;5022173;28;91846;-44
2022/01/30 06:43:18;;;;;;;;;;;-2.10;76.50;;;;;;5022656;28;93889;-44
2022/01/30 06:45:43;;;;;;;;;;;-2.10;76.40;;;;;;5022044;28;94492;-45
2022/01/30 06:48:09;;;;;;;;;;;-2.00;76.30;;;;;;5022965;28;91493;-44
2022/01/30 06:50:34;;;;;;;;;;;-2.00;76.40;;;;;;5022692;28;93438;-44
2022/01/30 06:53:00;;;;;;;;;;;-2.10;76.50;;;;;;5021893;28;93597;-44
2022/01/30 06:55:25;;;;;;;;;;;-2.10;76.30;;;;;;5024858;28;93217;-44
2022/01/30 06:57:51;;;;;;;;;;;-2.10;76.40;;;;;;5021900;28;94633;-45
2022/01/30 07:00:17;;;;;;;;;;;-2.10;76.50;;;;;;5022540;28;92179;-44
2022/01/30 07:02:42;;;;;;;;;;;-2.10;76.50;;;;;;5022179;28;95006;-44
2022/01/30 07:05:08;;;;;;;;;;;-2.10;76.40;;;;;;5021903;28;94851;-44
2022/01/30 07:07:34;;;;;;;;;;;-2.10;76.40;;;;;;5022454;28;92222;-44
2022/01/30 07:10:00;;;;;;;;;;;-2.10;76.40;;;;;;5022331;28;93830;-44
2022/01/30 07:12:25;;;;;;;;;;;-2.10;76.50;;;;;;5022202;28;93787;-44
2022/01/30 07:14:51;;;;;;;;;;;-2.10;76.40;;;;;;5021998;28;92132;-44
2022/01/30 07:17:16;;;;;;;;;;;-2.10;76.50;;;;;;5024715;28;93949;-44
2022/01/30 07:19:42;;;;;;;;;;;-2.10;76.50;;;;;;5020884;28;93079;-44
2022/01/30 07:22:07;;;;;;;;;;;-2.10;76.50;;;;;;5022117;28;95150;-44
2022/01/30 07:24:33;;;;;;;;;;;-2.20;76.40;;;;;;5021500;28;95123;-44
2022/01/30 07:26:59;;;;;;;;;;;-2.20;76.60;;;;;;5022301;28;92178;-44
2022/01/30 07:29:25;;;;;;;;;;;-2.20;76.60;;;;;;5021934;28;93717;-44
2022/01/30 07:31:50;;;;;;;;;;;-2.20;76.80;;;;;;5021370;28;94635;-44
2022/01/30 07:34:16;;;;;;;;;;;-2.20;76.90;;;;;;5022002;28;92144;-44
2022/01/30 07:36:42;;;;;;;;;;;-2.20;77.10;;;;;;5024750;28;94132;-44
2022/01/30 07:39:09;;;;;;;;;;;-2.30;77.10;;;;;;5021813;28;92131;-44
2022/01/30 07:41:35;;;;;;;;;;;-2.30;77.10;;;;;;5021159;28;93745;-44
2022/01/30 07:44:01;;;;;;;;;;;-2.30;77.10;;;;;;5020304;28;95050;-44
2022/01/30 07:46:27;;;;;;;;;;;-2.30;77.20;;;;;;5021659;28;92209;-44
2022/01/30 07:48:53;;;;;;;;;;;-2.30;77.20;;;;;;5021682;28;93722;-44
2022/01/30 07:51:18;;;;;;;;;;;-2.30;77.20;;;;;;5021054;28;93643;-44
2022/01/30 07:53:44;;;;;;;;;;;-2.30;77.20;;;;;;5021759;28;92129;-44
2022/01/30 07:56:09;;;;;;;;;;;-2.30;77.00;;;;;;5021559;28;94098;-44
2022/01/30 07:58:35;;;;;;;;;;;-2.30;77.20;;;;;;5023913;28;94574;-44
2022/01/30 08:01:00;;;;;;;;;;;-2.30;77.20;;;;;;5021905;28;94014;-44
2022/01/30 08:03:26;;;;;;;;;;;-2.30;77.80;;;;;;5020983;28;94305;-44
2022/01/30 08:05:51;;;;;;;;;;;-2.30;77.40;;;;;;5021395;28;92116;-44
2022/01/30 08:08:17;;;;;;;;;;;-2.30;77.40;;;;;;5020843;28;94200;-44
2022/01/30 08:10:42;;;;;;;;;;;-2.30;77.40;;;;;;5020714;28;95094;-44
2022/01/30 08:13:08;;;;;;;;;;;-2.20;77.20;;;;;;5021283;28;91875;-44
2022/01/30 08:15:33;;;;;;;;;;;-2.20;77.20;;;;;;5021162;28;94020;-44
2022/01/30 08:17:59;;;;;;;;;;;-2.20;77.10;;;;;;5020596;28;94549;-44
2022/01/30 08:20:27;;;;;;;;;;;-2.20;77.30;;;;;;5024419;28;92287;-44
2022/01/30 08:22:53;;;;;;;;;;;-2.20;77.30;;;;;;5020470;28;94544;-44
2022/01/30 08:25:19;;;;;;;;;;;-2.30;77.40;;;;;;5021622;28;91525;-44
2022/01/30 08:27:45;;;;;;;;;;;-2.30;77.60;;;;;;5021021;28;93239;-44
2022/01/30 08:30:11;;;;;;;;;;;-2.40;77.70;;;;;;5019898;28;94590;-44
2022/01/30 08:32:38;;;;;;;;;;;-2.40;77.90;;;;;;5019554;28;93196;-44
2022/01/30 08:35:04;;;;;;;;;;;-2.40;78.00;;;;;;5020979;28;94802;-44
2022/01/30 08:37:29;;;;;;;;;;;-2.40;78.00;;;;;;5020248;28;94949;-44
2022/01/30 08:39:55;;;;;;;;;;;-2.40;78.00;;;;;;5020920;28;92111;-44
2022/01/30 08:42:20;;;;;;;;;;;-2.40;78.00;;;;;;5022822;28;95821;-44
2022/01/30 08:44:46;;;;;;;;;;;-2.30;78.00;;;;;;5020392;28;92238;-44
2022/01/30 08:47:11;;;;;;;;;;;-2.40;77.90;;;;;;5020908;28;94120;-44
2022/01/30 08:49:37;;;;;;;;;;;-2.40;77.90;;;;;;5020811;28;93561;-44
2022/01/30 08:52:02;;;;;;;;;;;-2.30;77.80;;;;;;5020696;28;92262;-44
2022/01/30 08:54:28;;;;;;;;;;;-2.40;77.90;;;;;;5020705;28;94150;-44
2022/01/30 08:56:53;;;;;;;;;;;-2.30;78.00;;;;;;5019405;28;95684;-44
2022/01/30 08:59:19;;;;;;;;;;;-2.30;78.10;;;;;;5020473;28;92130;-44
2022/01/30 09:01:45;;;;;;;;;;;-2.30;78.00;;;;;;5020493;28;93918;-44
2022/01/30 09:04:11;;;;;;;;;;;-2.30;77.90;;;;;;5023204;28;94549;-44
2022/01/30 09:06:38;;;;;;;;;;;-2.30;77.80;;;;;;5020660;28;93644;-44
2022/01/30 09:09:04;;;;;;;;;;;-2.30;77.80;;;;;;5019841;28;94083;-44
2022/01/30 09:11:29;;;;;;;;;;;-2.30;77.70;;;;;;5020388;28;92037;-45
2022/01/30 09:13:55;;;;;;;;;;;-2.30;77.70;;;;;;5020624;28;93778;-43
2022/01/30 09:16:20;;;;;;;;;;;-2.30;77.70;;;;;;5019796;28;94821;-43
2022/01/30 09:18:46;;;;;;;;;;;-2.30;77.70;;;;;;5020323;28;92141;-43
2022/01/30 09:21:12;;;;;;;;;;;-2.30;77.60;;;;;;5019826;28;93891;-44
2022/01/30 09:23:38;;;;;;;;;;;-2.30;77.90;;;;;;5019778;28;94636;-45
2022/01/30 09:26:03;;;;;;;;;;;-2.40;78.00;;;;;;5023201;28;92170;-44
2022/01/30 09:28:29;;;;;;;;;;;-2.40;78.10;;;;;;5019469;28;95333;-44
2022/01/30 09:30:54;;;;;;;;;;;-2.40;78.10;;;;;;5020057;28;92040;-44
2022/01/30 09:33:20;;;;;;;;;;;-2.40;78.50;;;;;;5019985;28;93761;-44
2022/01/30 09:35:45;;;;;;;;;;;-2.50;78.50;;;;;;5019869;28;93178;-44
2022/01/30 09:38:11;;;;;;;;;;;-2.50;79.20;;;;;;5020819;28;91426;-44
2022/01/30 09:40:36;;;;;;;;;;;-2.50;78.70;;;;;;5019831;28;93952;-44
2022/01/30 09:43:02;;;;;;;;;;;-2.50;78.70;;;;;;5018968;28;94311;-44
2022/01/30 09:45:28;;;;;;;;;;;-2.50;79.00;;;;;;5022317;28;93228;-43
2022/01/30 09:47:54;;;;;;;;;;;-2.50;79.00;;;;;;5019392;28;94356;-44
2022/01/30 09:50:21;;;;;;;;;;;-2.50;78.90;;;;;;5019928;28;92190;-43
2022/01/30 09:52:46;;;;;;;;;;;-2.50;79.10;;;;;;5019921;28;93879;-44
2022/01/30 09:55:12;;;;;;;;;;;-2.50;79.00;;;;;;5019287;28;94403;-44
2022/01/30 09:57:41;;;;;;;;;;;-2.40;79.10;;;;;;5019645;28;91998;-43
2022/01/30 10:00:07;;;;;;;;;;;-2.50;79.00;;;;;;5019693;28;93707;-44
2022/01/30 10:02:33;;;;;;;;;;;-2.50;79.00;;;;;;5019583;28;93985;-44
2022/01/30 10:04:58;;;;;;;;;;;-2.50;79.20;;;;;;5019768;28;92194;-44
2022/01/30 10:07:37;;;;;;;;;;;-2.50;79.20;;;;;;5022152;28;94065;-44
2022/01/30 10:10:09;;;;;;;;;;;-2.50;79.10;;;;;;5019105;28;93057;-43
2022/01/30 10:12:35;;;;;;;;;;;-2.40;79.30;;;;;;5019478;28;95050;-43
2022/01/30 10:15:01;;;;;;;;;;;-2.40;79.50;;;;;;5018862;28;94565;-45
2022/01/30 10:17:26;;;;;;;;;;;-2.40;79.40;;;;;;5019517;28;92202;-44
2022/01/30 10:20:04;;;;;;;;;;;-2.40;79.50;;;;;;5019423;28;93902;-44
2022/01/30 10:22:29;;;;;;;;;;;-2.40;79.30;;;;;;5018730;28;94573;-45
2022/01/30 10:24:55;;;;;;;;;;;-2.40;79.20;;;;;;5019316;28;92179;-44
2022/01/30 10:27:25;;;;;;;;;;;-2.40;79.40;;;;;;5019901;28;93874;-44
2022/01/30 10:29:58;;;;;;;;;;;-2.40;79.50;;;;;;5021901;28;93466;-43
2022/01/30 10:32:24;;;;;;;;;;;-2.40;79.30;;;;;;5018055;28;95702;-44
2022/01/30 10:35:18;;;;;;;;;;;-2.30;79.10;;;;;;5018211;28;95488;-43
2022/01/30 10:37:45;;;;;;;;;;;-2.30;79.30;;;;;;5022113;28;92125;-44
2022/01/30 10:40:24;;;;;;;;;;;-2.30;79.10;;;;;;5019347;28;93862;-44
2022/01/30 10:42:50;;;;;;;;;;;-2.30;79.40;;;;;;5018388;28;94680;-44
2022/01/30 10:45:19;;;;;;;;;;;-2.20;79.60;;;;;;5019395;28;92030;-45
2022/01/30 10:47:45;;;;;;;;;;;-2.20;79.80;;;;;;5019122;28;93607;-43
2022/01/30 10:50:12;;;;;;;;;;;-2.20;79.40;;;;;;5018215;28;94636;-44
2022/01/30 10:52:54;;;;;;;;;;;-2.10;79.60;;;;;;5022674;28;91417;-46
2022/01/30 10:55:37;;;;;;;;;;;-2.10;79.30;;;;;;5020708;28;94619;-45
2022/01/30 10:58:03;;;;;;;;;;;-2.10;79.80;;;;;;5022670;28;92141;-44
2022/01/30 11:00:43;;;;;;;;;;;-2.10;79.70;;;;;;5021954;28;93737;-44
2022/01/30 11:03:09;;;;;;;;;;;-2.10;80.00;;;;;;5021670;28;94529;-44
2022/01/30 11:05:54;;;;;;;;;;;-2.10;80.10;;;;;;5021055;28;92117;-44
2022/01/30 11:08:23;;;;;;;;;;;-2.00;80.10;;;;;;5022200;28;94448;-44
2022/01/30 11:11:18;;;;;;;;;;;-2.00;79.90;;;;;;5021629;28;94619;-44
2022/01/30 11:19:12;;;;;;;;;;;-2.00;80.50;;;;;;5022960;28;91187;-45
2022/01/30 11:21:38;;;;;;;;;;;-2.00;80.60;;;;;;5022138;28;92107;-44
2022/01/30 11:24:04;;;;;;;;;;;-2.00;80.50;;;;;;5021356;28;94625;-44
2022/01/30 11:26:30;;;;;;;;;;;-2.00;80.90;;;;;;5021253;28;93156;-44
2022/01/30 11:28:56;;;;;;;;;;;-2.00;80.90;;;;;;5022174;28;94874;-44
2022/01/30 11:31:23;;;;;;;;;;;-2.00;80.90;;;;;;5021434;28;94361;-45
2022/01/30 11:33:50;;;;;;;;;;;-1.90;81.10;;;;;;5022044;28;92208;-44
2022/01/30 11:36:16;;;;;;;;;;;-1.90;81.10;;;;;;5021654;28;93840;-44
2022/01/30 11:38:41;;;;;;;;;;;-1.90;81.10;;;;;;5024260;28;94640;-44
2022/01/30 11:41:08;;;;;;;;;;;-1.90;81.20;;;;;;5021731;28;92309;-43
2022/01/30 11:43:33;;;;;;;;;;;-1.90;81.20;;;;;;5021664;28;93781;-45
2022/01/30 11:46:15;;;;;;;;;;;-1.90;81.00;;;;;;5021607;28;92188;-44
2022/01/30 11:48:41;;;;;;;;;;;-1.80;81.20;;;;;;5021713;28;92047;-44
2022/01/30 11:51:07;;;;;;;;;;;-1.80;81.10;;;;;;5020586;28;95272;-44
2022/01/30 11:53:32;;;;;;;;;;;-1.80;81.10;;;;;;5021559;28;92167;-44
2022/01/30 11:55:59;;;;;;;;;;;-1.80;81.30;;;;;;5021498;28;93654;-44
2022/01/30 11:58:35;;;;;;;;;;;-1.80;81.40;;;;;;5024084;28;94316;-44
2022/01/30 12:01:19;;;;;;;;;;;-1.80;81.20;;;;;;5021441;28;94034;-44
2022/01/30 12:04:00;;;;;;;;;;;-1.80;81.40;;;;;;5020814;28;94616;-45
2022/01/30 12:06:26;;;;;;;;;;;-1.80;81.40;;;;;;5021777;28;91879;-44
2022/01/30 12:08:52;;;;;;;;;;;-1.80;81.50;;;;;;5021865;28;93441;-44
2022/01/30 12:11:49;;;;;;;;;;;-1.80;82.10;;;;;;5020624;28;94234;-45
2022/01/30 12:14:20;;;;;;;;;;;-1.80;81.70;;;;;;5021563;28;91967;-44
2022/01/30 12:16:56;;;;;;;;;;;-1.80;81.80;;;;;;5020754;28;93880;-44
2022/01/30 12:19:30;;;;;;;;;;;-1.80;81.50;;;;;;5020561;28;94763;-44
2022/01/30 12:21:56;;;;;;;;;;;-1.80;81.80;;;;;;5024186;28;92047;-47
2022/01/30 12:24:25;;;;;;;;;;;-1.80;81.70;;;;;;5020337;28;94626;-45
2022/01/30 12:26:51;;;;;;;;;;;-1.70;82.00;;;;;;5021015;28;92195;-45
2022/01/30 12:29:36;;;;;;;;;;;-1.70;81.90;;;;;;5021068;28;93613;-46
2022/01/30 12:32:20;;;;;;;;;;;-1.70;82.00;;;;;;5020599;28;94423;-45
2022/01/30 12:34:55;;;;;;;;;;;-1.70;82.00;;;;;;5021435;28;91281;-44
2022/01/30 12:37:21;;;;;;;;;;;-1.70;82.20;;;;;;5020880;28;93054;-45
2022/01/30 12:39:47;;;;;;;;;;;-1.70;82.10;;;;;;5020474;28;93468;-44
2022/01/30 12:42:19;;;;;;;;;;;-1.70;81.90;;;;;;5019842;28;93087;-44
2022/01/30 12:44:45;;;;;;;;;;;-1.70;82.20;;;;;;5023349;28;95103;-45
2022/01/30 12:47:10;;;;;;;;;;;-1.60;82.20;;;;;;5020730;28;92177;-46
2022/01/30 12:49:51;;;;;;;;;;;-1.60;82.00;;;;;;5021086;28;93777;-44
2022/01/30 12:52:29;;;;;;;;;;;-1.60;82.20;;;;;;5020212;28;94680;-47
2022/01/30 12:54:59;;;;;;;;;;;-1.60;82.30;;;;;;5020759;28;91933;-43
2022/01/30 12:57:25;;;;;;;;;;;-1.60;82.40;;;;;;5020378;28;94154;-45
2022/01/30 12:59:56;;;;;;;;;;;-1.60;82.20;;;;;;5020335;28;92616;-46
2022/01/30 13:02:22;;;;;;;;;;;-1.60;82.30;;;;;;5020508;28;92103;-44
2022/01/30 13:04:58;;;;;;;;;;;-1.60;82.20;;;;;;5020523;28;94059;-45
2022/01/30 13:07:23;;;;;;;;;;;-1.60;82.40;;;;;;5022392;28;95386;-46
2022/01/30 13:09:49;;;;;;;;;;;-1.60;82.40;;;;;;5020356;28;96312;-45
2022/01/30 13:12:15;;;;;;;;;;;-1.60;82.50;;;;;;5019720;28;94872;-46
2022/01/30 13:14:42;;;;;;;;;;;-1.60;82.30;;;;;;5020587;28;91952;-44
2022/01/30 13:17:08;;;;;;;;;;;-1.60;82.50;;;;;;5019908;28;93723;-42
2022/01/30 13:19:35;;;;;;;;;;;-1.40;82.30;;;;;;5019803;28;94888;-43
2022/01/30 13:22:01;;;;;;;;;;;-1.40;81.30;;;;;;5020216;28;92130;-43
2022/01/30 13:24:27;;;;;;;;;;;-1.40;82.70;;;;;;5020545;28;93988;-42
2022/01/30 13:27:03;;;;;;;;;;;-1.50;82.90;;;;;;5019545;28;94154;-42
2022/01/30 13:29:33;;;;;;;;;;;-1.50;83.50;;;;;;5023185;28;91990;-43
2022/01/30 13:31:59;;;;;;;;;;;-1.60;83.90;;;;;;5018898;28;95175;-43
2022/01/30 13:34:29;;;;;;;;;;;-1.60;83.80;;;;;;5020077;28;92223;-43
2022/01/30 13:37:05;;;;;;;;;;;-1.50;83.40;;;;;;5020073;28;93889;-44
2022/01/30 13:39:39;;;;;;;;;;;-1.40;82.90;;;;;;5019188;28;94789;-43
2022/01/30 13:44:52;;;;;;;;;;;-1.30;83.00;;;;;;5020248;28;92072;-43
2022/01/30 13:47:21;;;;;;;;;;;-1.30;83.00;;;;;;5018282;28;96698;-42
2022/01/30 13:49:49;;;;;;;;;;;-1.30;82.80;;;;;;5020436;28;91243;-43
2022/01/30 13:52:15;;;;;;;;;;;-1.30;82.70;;;;;;5022399;28;93215;-43
2022/01/30 13:54:41;;;;;;;;;;;-1.30;82.90;;;;;;5019965;28;92120;-42
2022/01/30 13:57:08;;;;;;;;;;;-1.20;82.80;;;;;;5019175;28;93936;-43
2022/01/30 13:59:34;;;;;;;;;;;-1.20;82.70;;;;;;5019283;28;94014;-44
2022/01/30 14:02:03;;;;;;;;;;;-1.20;82.80;;;;;;5019671;28;92223;-43
2022/01/30 14:04:29;;;;;;;;;;;-1.20;82.70;;;;;;5018240;28;95430;-43
2022/01/30 14:06:59;;;;;;;;;;;-1.20;82.80;;;;;;5019200;28;94629;-43
2022/01/30 14:09:35;;;;;;;;;;;-1.20;82.50;;;;;;5019679;28;91948;-43
2022/01/30 14:12:07;;;;;;;;;;;-1.20;82.60;;;;;;5022429;28;93832;-44
2022/01/30 14:14:37;;;;;;;;;;;-1.20;82.50;;;;;;5020027;28;91384;-43
2022/01/30 14:17:03;;;;;;;;;;;-1.10;82.60;;;;;;5019397;28;93300;-43
2022/01/30 14:19:34;;;;;;;;;;;-1.10;82.50;;;;;;5019051;28;94261;-43
2022/01/30 14:22:14;;;;;;;;;;;-1.10;82.70;;;;;;5018979;28;92997;-43
2022/01/30 14:25:06;;;;;;;;;;;-1.10;82.60;;;;;;5019263;28;95286;-44
2022/01/30 14:27:39;;;;;;;;;;;-1.10;82.80;;;;;;5019251;28;94531;-44
2022/01/30 14:30:08;;;;;;;;;;;-1.10;82.70;;;;;;5021526;28;92298;-45
2022/01/30 14:32:39;;;;;;;;;;;-1.10;82.80;;;;;;5022750;28;94122;-44
2022/01/30 14:35:11;;;;;;;;;;;-1.10;82.80;;;;;;5025294;28;94644;-43
2022/01/30 14:37:39;;;;;;;;;;;-1.10;82.90;;;;;;5022747;28;93624;-46
2022/01/30 14:40:06;;;;;;;;;;;-1.10;82.90;;;;;;5022534;28;92725;-43
2022/01/30 14:42:31;;;;;;;;;;;-1.10;82.70;;;;;;5022646;28;92126;-44
2022/01/30 14:44:57;;;;;;;;;;;-1.10;82.80;;;;;;5022540;28;93723;-45
2022/01/30 14:47:23;;;;;;;;;;;-1.00;82.90;;;;;;5021543;28;95419;-44
2022/01/30 14:49:49;;;;;;;;;;;-1.10;82.90;;;;;;5022663;28;91902;-45
2022/01/30 14:52:15;;;;;;;;;;;-1.00;83.10;;;;;;5022458;28;94171;-43
2022/01/30 14:54:41;;;;;;;;;;;-1.00;83.00;;;;;;5021974;28;94463;-43
2022/01/30 14:57:06;;;;;;;;;;;-1.00;83.00;;;;;;5025575;28;91903;-43
2022/01/30 14:59:32;;;;;;;;;;;-1.00;83.00;;;;;;5021986;28;93374;-44
2022/01/30 15:01:58;;;;;;;;;;;-1.00;83.00;;;;;;5022576;28;92119;-43
2022/01/30 15:04:42;;;;;;;;;;;-1.00;83.00;;;;;;5023035;28;92303;-43
2022/01/30 15:07:07;;;;;;;;;;;-1.00;83.00;;;;;;5021872;28;94282;-43
2022/01/30 15:09:33;;;;;;;;;;;-0.90;83.00;;;;;;5022049;28;92210;-43
2022/01/30 15:11:59;;;;;;;;;;;-0.90;83.20;;;;;;5021800;28;93280;-43
2022/01/30 15:14:33;;;;;;;;;;;-0.90;83.40;;;;;;5021788;28;94699;-44
2022/01/30 15:16:59;;;;;;;;;;;-0.90;83.30;;;;;;5022318;28;91900;-43
2022/01/30 15:19:24;;;;;;;;;;;-0.90;83.20;;;;;;5024695;28;93852;-44
2022/01/30 15:21:50;;;;;;;;;;;-0.90;83.20;;;;;;5021914;28;92137;-43
2022/01/30 15:24:16;;;;;;;;;;;-0.90;83.20;;;;;;5022216;28;93830;-43
2022/01/30 15:26:42;;;;;;;;;;;-0.90;83.20;;;;;;5021392;28;94920;-44
2022/01/30 15:29:09;;;;;;;;;;;-0.90;83.20;;;;;;5022530;28;91452;-43
2022/01/30 15:31:35;;;;;;;;;;;-0.90;83.10;;;;;;5022147;28;93091;-45